createdAt,value
2018-03-20T00:01:20.338Z,984.40
2018-03-20T00:02:20.479Z,984.41
2018-03-20T00:03:20.628Z,984.45
2018-03-20T00:04:20.776Z,984.43
2018-03-20T00:05:20.925Z,984.41
2018-03-20T00:06:21.085Z,984.40
2018-03-20T00:07:21.221Z,984.42
2018-03-20T00:08:21.395Z,984.40
2018-03-20T00:09:21.541Z,984.42
2018-03-20T00:10:21.688Z,984.38
2018-03-20T00:11:21.837Z,984.40
2018-03-20T00:12:21.987Z,984.34
2018-03-20T00:13:22.139Z,984.36
2018-03-20T00:14:22.286Z,984.40
2018-03-20T00:15:22.440Z,984.37
2018-03-20T00:16:22.586Z,984.36
2018-03-20T00:17:22.738Z,984.37
2018-03-20T00:18:22.886Z,984.35
2018-03-20T00:19:23.034Z,984.36
2018-03-20T00:20:23.193Z,984.37
2018-03-20T00:21:23.344Z,984.35
2018-03-20T00:22:23.478Z,984.34
2018-03-20T00:23:23.632Z,984.31
2018-03-20T00:24:23.780Z,984.35
2018-03-20T00:25:23.929Z,984.34
2018-03-20T00:26:24.079Z,984.33
2018-03-20T00:27:24.230Z,984.32
2018-03-20T00:28:24.377Z,984.32
2018-03-20T00:29:24.538Z,984.32
2018-03-20T00:30:24.670Z,984.35
2018-03-20T00:31:24.844Z,984.33
2018-03-20T00:32:24.995Z,984.34
2018-03-20T00:33:25.145Z,984.33
2018-03-20T00:34:25.283Z,984.33
2018-03-20T00:35:25.439Z,984.38
2018-03-20T00:36:25.588Z,984.35
2018-03-20T00:37:25.735Z,984.35
2018-03-20T00:38:25.886Z,984.34
2018-03-20T00:39:26.034Z,984.35
2018-03-20T00:40:26.184Z,984.36
2018-03-20T00:41:26.333Z,984.33
2018-03-20T00:42:26.481Z,984.37
2018-03-20T00:43:26.636Z,984.37
2018-03-20T00:44:26.786Z,984.37
2018-03-20T00:45:26.929Z,984.39
2018-03-20T00:46:27.085Z,984.40
2018-03-20T00:47:27.234Z,984.36
2018-03-20T00:48:27.389Z,984.40
2018-03-20T00:49:27.556Z,984.40
2018-03-20T00:50:27.681Z,984.40
2018-03-20T00:51:27.831Z,984.38
2018-03-20T00:52:27.969Z,984.37
2018-03-20T00:53:28.124Z,984.35
2018-03-20T00:54:28.273Z,984.34
2018-03-20T00:55:28.422Z,984.37
2018-03-20T00:56:28.570Z,984.39
2018-03-20T00:57:28.722Z,984.39
2018-03-20T00:58:28.863Z,984.39
2018-03-20T00:59:29.008Z,984.39
2018-03-20T01:00:29.160Z,984.38
2018-03-20T01:01:29.344Z,984.35
2018-03-20T01:02:29.448Z,984.36
2018-03-20T01:03:29.593Z,984.31
2018-03-20T01:04:29.817Z,984.31
2018-03-20T01:05:29.838Z,984.27
2018-03-20T01:06:29.986Z,984.27
2018-03-20T01:07:30.135Z,984.26
2018-03-20T01:08:30.283Z,984.25
2018-03-20T01:09:30.432Z,984.24
2018-03-20T01:10:30.579Z,984.25
2018-03-20T01:11:30.726Z,984.24
2018-03-20T01:12:30.870Z,984.23
2018-03-20T01:13:31.020Z,984.25
2018-03-20T01:14:31.171Z,984.22
2018-03-20T01:15:31.322Z,984.20
2018-03-20T01:16:31.464Z,984.20
2018-03-20T01:17:31.684Z,984.23
2018-03-20T01:18:31.759Z,984.23
2018-03-20T01:19:31.909Z,984.26
2018-03-20T01:20:32.062Z,984.19
2018-03-20T01:21:32.202Z,984.22
2018-03-20T01:22:32.348Z,984.24
2018-03-20T01:23:32.490Z,984.30
2018-03-20T01:24:32.643Z,984.33
2018-03-20T01:25:32.799Z,984.30
2018-03-20T01:26:32.945Z,984.28
2018-03-20T01:27:33.094Z,984.29
2018-03-20T01:28:33.240Z,984.30
2018-03-20T01:29:33.392Z,984.31
2018-03-20T01:30:33.541Z,984.27
2018-03-20T01:31:33.689Z,984.29
2018-03-20T01:32:33.843Z,984.26
2018-03-20T01:33:33.999Z,984.23
2018-03-20T01:34:34.138Z,984.22
2018-03-20T01:35:34.285Z,984.24
2018-03-20T01:36:34.449Z,984.27
2018-03-20T01:37:34.583Z,984.18
2018-03-20T01:38:34.730Z,984.22
2018-03-20T01:39:34.877Z,984.20
2018-03-20T01:40:35.036Z,984.25
2018-03-20T01:41:35.183Z,984.25
2018-03-20T01:42:35.324Z,984.24
2018-03-20T01:43:35.468Z,984.27
2018-03-20T01:44:35.609Z,984.25
2018-03-20T01:45:35.764Z,984.24
2018-03-20T01:46:35.912Z,984.28
2018-03-20T01:47:36.062Z,984.24
2018-03-20T01:48:36.215Z,984.24
2018-03-20T01:49:36.358Z,984.22
2018-03-20T01:50:36.511Z,984.26
2018-03-20T01:51:36.660Z,984.28
2018-03-20T01:52:36.807Z,984.25
2018-03-20T01:53:36.963Z,984.26
2018-03-20T01:54:37.111Z,984.23
2018-03-20T01:55:37.251Z,984.24
2018-03-20T01:56:37.402Z,984.21
2018-03-20T01:57:37.557Z,984.18
2018-03-20T01:58:37.692Z,984.17
2018-03-20T01:59:37.840Z,984.17
2018-03-20T02:00:37.989Z,984.15
2018-03-20T02:01:38.148Z,984.15
2018-03-20T02:02:38.296Z,984.14
2018-03-20T02:03:38.444Z,984.13
2018-03-20T02:04:38.592Z,984.14
2018-03-20T02:05:38.737Z,984.15
2018-03-20T02:06:38.904Z,984.12
2018-03-20T02:07:39.036Z,984.07
2018-03-20T02:08:39.181Z,984.14
2018-03-20T02:09:39.333Z,984.15
2018-03-20T02:10:39.482Z,984.13
2018-03-20T02:11:39.629Z,984.17
2018-03-20T02:12:39.777Z,984.17
2018-03-20T02:13:39.927Z,984.17
2018-03-20T02:14:40.072Z,984.17
2018-03-20T02:15:40.228Z,984.16
2018-03-20T02:16:40.366Z,984.20
2018-03-20T02:17:40.520Z,984.23
2018-03-20T02:18:40.667Z,984.21
2018-03-20T02:19:40.818Z,984.25
2018-03-20T02:20:41.036Z,984.23
2018-03-20T02:21:41.182Z,984.20
2018-03-20T02:22:41.327Z,984.24
2018-03-20T02:23:41.480Z,984.27
2018-03-20T02:24:41.630Z,984.26
2018-03-20T02:25:41.777Z,984.21
2018-03-20T02:26:41.925Z,984.25
2018-03-20T02:27:42.069Z,984.25
2018-03-20T02:28:42.219Z,984.25
2018-03-20T02:29:42.382Z,984.31
2018-03-20T02:30:42.518Z,984.28
2018-03-20T02:31:42.666Z,984.29
2018-03-20T02:32:42.814Z,984.28
2018-03-20T02:33:42.954Z,984.27
2018-03-20T02:34:43.103Z,984.27
2018-03-20T02:35:43.249Z,984.23
2018-03-20T02:36:43.396Z,984.26
2018-03-20T02:37:43.558Z,984.23
2018-03-20T02:38:43.702Z,984.25
2018-03-20T02:39:43.849Z,984.24
2018-03-20T02:40:43.996Z,984.30
2018-03-20T02:41:44.145Z,984.27
2018-03-20T02:42:44.293Z,984.28
2018-03-20T02:43:44.440Z,984.25
2018-03-20T02:44:44.583Z,984.24
2018-03-20T02:45:44.730Z,984.27
2018-03-20T02:46:44.881Z,984.26
2018-03-20T02:47:45.032Z,984.28
2018-03-20T02:48:45.178Z,984.32
2018-03-20T02:49:45.328Z,984.30
2018-03-20T02:50:45.477Z,984.31
2018-03-20T02:51:45.624Z,984.29
2018-03-20T02:52:45.783Z,984.29
2018-03-20T02:53:45.941Z,984.28
2018-03-20T02:54:46.070Z,984.25
2018-03-20T02:55:46.219Z,984.24
2018-03-20T02:56:46.369Z,984.23
2018-03-20T02:57:46.527Z,984.23
2018-03-20T02:58:46.679Z,984.26
2018-03-20T02:59:46.831Z,984.29
2018-03-20T03:00:47.028Z,984.23
2018-03-20T03:01:47.129Z,984.25
2018-03-20T03:02:47.275Z,984.26
2018-03-20T03:03:48.392Z,984.21
2018-03-20T03:04:47.570Z,984.21
2018-03-20T03:05:47.718Z,984.23
2018-03-20T03:06:47.867Z,984.20
2018-03-20T03:07:48.010Z,984.18
2018-03-20T03:08:48.156Z,984.18
2018-03-20T03:09:48.303Z,984.15
2018-03-20T03:10:48.448Z,984.16
2018-03-20T03:11:48.597Z,984.16
2018-03-20T03:12:48.745Z,984.12
2018-03-20T03:13:48.899Z,984.13
2018-03-20T03:14:49.047Z,984.15
2018-03-20T03:15:49.184Z,984.16
2018-03-20T03:16:49.340Z,984.16
2018-03-20T03:17:49.484Z,984.17
2018-03-20T03:18:49.630Z,984.14
2018-03-20T03:19:49.777Z,984.15
2018-03-20T03:20:49.927Z,984.15
2018-03-20T03:21:50.084Z,984.16
2018-03-20T03:22:50.228Z,984.13
2018-03-20T03:23:50.378Z,984.14
2018-03-20T03:24:50.530Z,984.14
2018-03-20T03:25:50.674Z,984.11
2018-03-20T03:26:50.823Z,984.18
2018-03-20T03:27:50.972Z,984.17
2018-03-20T03:28:51.116Z,984.16
2018-03-20T03:29:51.268Z,984.17
2018-03-20T03:30:51.416Z,984.17
2018-03-20T03:31:51.566Z,984.13
2018-03-20T03:32:51.714Z,984.14
2018-03-20T03:33:51.865Z,984.14
2018-03-20T03:34:52.023Z,984.16
2018-03-20T03:35:52.170Z,984.17
2018-03-20T03:36:52.322Z,984.16
2018-03-20T03:37:52.472Z,984.14
2018-03-20T03:38:52.613Z,984.15
2018-03-20T03:39:52.760Z,984.16
2018-03-20T03:40:52.908Z,984.18
2018-03-20T03:41:53.054Z,984.22
2018-03-20T03:42:53.204Z,984.23
2018-03-20T03:43:53.354Z,984.23
2018-03-20T03:44:53.500Z,984.24
2018-03-20T03:45:53.648Z,984.21
2018-03-20T03:46:53.795Z,984.23
2018-03-20T03:47:53.942Z,984.22
2018-03-20T03:48:54.090Z,984.16
2018-03-20T03:49:54.237Z,984.15
2018-03-20T03:50:54.390Z,984.13
2018-03-20T03:51:54.604Z,984.12
2018-03-20T03:52:54.751Z,984.10
2018-03-20T03:53:54.899Z,984.10
2018-03-20T03:54:55.048Z,984.03
2018-03-20T03:55:55.198Z,984.03
2018-03-20T03:56:55.350Z,983.95
2018-03-20T03:57:55.497Z,983.97
2018-03-20T03:58:55.647Z,983.99
2018-03-20T03:59:55.795Z,983.98
2018-03-20T04:00:55.942Z,984.00
2018-03-20T04:01:56.089Z,984.01
2018-03-20T04:02:56.233Z,984.07
2018-03-20T04:03:56.381Z,984.02
2018-03-20T04:04:56.538Z,984.01
2018-03-20T04:05:56.687Z,984.05
2018-03-20T04:06:56.835Z,984.10
2018-03-20T04:07:56.986Z,984.12
2018-03-20T04:08:57.129Z,984.15
2018-03-20T04:09:57.286Z,984.16
2018-03-20T04:10:57.437Z,984.14
2018-03-20T04:11:57.579Z,984.15
2018-03-20T04:12:57.726Z,984.14
2018-03-20T04:13:57.870Z,984.18
2018-03-20T04:14:58.023Z,984.18
2018-03-20T04:15:58.176Z,984.19
2018-03-20T04:16:58.295Z,984.21
2018-03-20T04:17:58.445Z,984.23
2018-03-20T04:18:58.603Z,984.20
2018-03-20T04:19:58.748Z,984.16
2018-03-20T04:20:58.905Z,984.21
2018-03-20T04:21:59.050Z,984.13
2018-03-20T04:22:59.201Z,984.10
2018-03-20T04:23:59.351Z,984.11
2018-03-20T04:24:59.504Z,984.15
2018-03-20T04:25:59.655Z,984.13
2018-03-20T04:26:59.798Z,984.11
2018-03-20T04:27:59.948Z,984.11
2018-03-20T04:29:00.097Z,984.10
2018-03-20T04:30:00.245Z,984.12
2018-03-20T04:31:00.394Z,984.11
2018-03-20T04:32:00.542Z,984.03
2018-03-20T04:33:00.687Z,983.99
2018-03-20T04:34:00.837Z,983.95
2018-03-20T04:35:00.986Z,983.98
2018-03-20T04:36:01.126Z,983.96
2018-03-20T04:37:01.276Z,983.95
2018-03-20T04:38:01.421Z,983.91
2018-03-20T04:39:01.569Z,983.91
2018-03-20T04:40:01.718Z,983.96
2018-03-20T04:41:01.856Z,983.92
2018-03-20T04:42:01.993Z,983.97
2018-03-20T04:43:02.164Z,983.98
2018-03-20T04:44:02.299Z,983.99
2018-03-20T04:45:02.455Z,983.97
2018-03-20T04:46:02.602Z,983.91
2018-03-20T04:47:02.751Z,983.85
2018-03-20T04:48:02.902Z,983.84
2018-03-20T04:49:03.050Z,983.82
2018-03-20T04:50:03.205Z,983.79
2018-03-20T04:51:03.354Z,983.82
2018-03-20T04:52:03.501Z,983.84
2018-03-20T04:53:03.648Z,983.86
2018-03-20T04:54:03.797Z,983.89
2018-03-20T04:55:03.946Z,983.86
2018-03-20T04:56:04.101Z,983.88
2018-03-20T04:57:04.240Z,983.92
2018-03-20T04:58:04.396Z,983.91
2018-03-20T04:59:04.536Z,983.94
2018-03-20T05:00:04.762Z,983.92
2018-03-20T05:01:04.890Z,983.91
2018-03-20T05:02:05.040Z,983.89
2018-03-20T05:03:05.188Z,983.89
2018-03-20T05:04:05.337Z,983.89
2018-03-20T05:05:05.487Z,983.94
2018-03-20T05:06:05.634Z,983.98
2018-03-20T05:07:05.784Z,984.02
2018-03-20T05:08:05.930Z,984.03
2018-03-20T05:09:06.085Z,984.06
2018-03-20T05:10:06.229Z,984.06
2018-03-20T05:11:06.378Z,984.00
2018-03-20T05:12:06.534Z,983.99
2018-03-20T05:13:06.687Z,983.99
2018-03-20T05:14:06.827Z,984.00
2018-03-20T05:15:06.976Z,984.05
2018-03-20T05:16:07.123Z,984.06
2018-03-20T05:17:07.273Z,984.10
2018-03-20T05:18:07.422Z,984.07
2018-03-20T05:19:07.568Z,984.06
2018-03-20T05:20:07.720Z,984.03
2018-03-20T05:21:07.867Z,984.03
2018-03-20T05:22:08.018Z,984.04
2018-03-20T05:23:08.168Z,983.99
2018-03-20T05:24:08.319Z,984.00
2018-03-20T05:25:08.470Z,983.96
2018-03-20T05:26:08.619Z,983.95
2018-03-20T05:27:08.771Z,983.95
2018-03-20T05:28:08.918Z,983.96
2018-03-20T05:29:09.065Z,983.96
2018-03-20T05:30:09.229Z,983.98
2018-03-20T05:31:09.373Z,983.99
2018-03-20T05:32:09.518Z,983.99
2018-03-20T05:33:09.667Z,984.03
2018-03-20T05:34:09.817Z,984.05
2018-03-20T05:35:09.977Z,984.03
2018-03-20T05:36:10.131Z,984.05
2018-03-20T05:37:10.271Z,984.03
2018-03-20T05:38:10.421Z,984.04
2018-03-20T05:39:10.571Z,984.02
2018-03-20T05:40:10.731Z,984.01
2018-03-20T05:41:10.879Z,984.00
2018-03-20T05:42:11.034Z,984.02
2018-03-20T05:43:11.180Z,983.99
2018-03-20T05:44:11.330Z,984.00
2018-03-20T05:45:11.480Z,984.06
2018-03-20T05:46:11.631Z,984.07
2018-03-20T05:47:11.781Z,984.14
2018-03-20T05:48:11.930Z,984.10
2018-03-20T05:49:12.081Z,984.09
2018-03-20T05:50:12.234Z,984.08
2018-03-20T05:51:12.393Z,984.08
2018-03-20T05:52:12.532Z,984.06
2018-03-20T05:53:12.682Z,984.05
2018-03-20T05:54:12.829Z,984.06
2018-03-20T05:55:12.986Z,984.04
2018-03-20T05:56:13.132Z,984.08
2018-03-20T05:57:13.325Z,984.08
2018-03-20T05:58:13.480Z,984.05
2018-03-20T05:59:13.628Z,984.02
2018-03-20T06:00:13.777Z,984.03
2018-03-20T06:01:13.929Z,984.04
2018-03-20T06:02:14.076Z,984.05
2018-03-20T06:03:14.225Z,984.01
2018-03-20T06:04:14.385Z,984.11
2018-03-20T06:05:14.545Z,984.04
2018-03-20T06:06:14.747Z,984.06
2018-03-20T06:07:14.840Z,984.10
2018-03-20T06:08:14.986Z,984.09
2018-03-20T06:09:15.136Z,984.13
2018-03-20T06:10:15.289Z,984.12
2018-03-20T06:11:15.447Z,984.17
2018-03-20T06:12:15.610Z,984.18
2018-03-20T06:13:15.758Z,984.21
2018-03-20T06:14:15.909Z,984.26
2018-03-20T06:15:16.059Z,984.26
2018-03-20T06:16:16.209Z,984.23
2018-03-20T06:17:16.357Z,984.21
2018-03-20T06:18:16.513Z,984.23
2018-03-20T06:19:16.666Z,984.23
2018-03-20T06:20:16.810Z,984.24
2018-03-20T06:21:16.962Z,984.21
2018-03-20T06:22:17.111Z,984.22
2018-03-20T06:23:17.264Z,984.23
2018-03-20T06:24:17.412Z,984.25
2018-03-20T06:25:17.563Z,984.23
2018-03-20T06:26:17.713Z,984.24
2018-03-20T06:27:17.862Z,984.24
2018-03-20T06:28:18.021Z,984.19
2018-03-20T06:29:18.162Z,984.16
2018-03-20T06:30:18.316Z,984.13
2018-03-20T06:31:18.468Z,984.17
2018-03-20T06:32:18.617Z,984.18
2018-03-20T06:33:18.761Z,984.25
2018-03-20T06:34:18.915Z,984.22
2018-03-20T06:35:19.068Z,984.24
2018-03-20T06:36:19.217Z,984.26
2018-03-20T06:37:19.369Z,984.28
2018-03-20T06:38:19.518Z,984.23
2018-03-20T06:39:19.671Z,984.28
2018-03-20T06:40:19.820Z,984.21
2018-03-20T06:41:19.973Z,984.23
2018-03-20T06:42:20.118Z,984.24
2018-03-20T06:43:20.264Z,984.19
2018-03-20T06:44:20.414Z,984.22
2018-03-20T06:45:20.568Z,984.23
2018-03-20T06:46:20.723Z,984.21
2018-03-20T06:47:20.873Z,984.16
2018-03-20T06:48:21.024Z,984.16
2018-03-20T06:49:21.174Z,984.19
2018-03-20T06:50:21.327Z,984.17
2018-03-20T06:51:21.480Z,984.17
2018-03-20T06:52:21.628Z,984.18
2018-03-20T06:53:21.780Z,984.17
2018-03-20T06:54:21.930Z,984.15
2018-03-20T06:55:22.079Z,984.18
2018-03-20T06:56:22.229Z,984.19
2018-03-20T06:57:22.380Z,984.23
2018-03-20T06:58:22.531Z,984.21
2018-03-20T06:59:22.685Z,984.22
2018-03-20T07:00:22.830Z,984.20
2018-03-20T07:01:23.019Z,984.22
2018-03-20T07:02:23.176Z,984.18
2018-03-20T07:03:23.324Z,984.26
2018-03-20T07:04:23.479Z,984.19
2018-03-20T07:05:23.635Z,984.22
2018-03-20T07:06:23.781Z,984.22
2018-03-20T07:07:23.931Z,984.24
2018-03-20T07:08:24.088Z,984.27
2018-03-20T07:09:24.231Z,984.25
2018-03-20T07:10:24.384Z,984.28
2018-03-20T07:11:24.525Z,984.23
2018-03-20T07:12:24.682Z,984.27
2018-03-20T07:13:24.843Z,984.32
2018-03-20T07:14:24.980Z,984.30
2018-03-20T07:15:25.136Z,984.31
2018-03-20T07:16:25.279Z,984.29
2018-03-20T07:17:25.429Z,984.33
2018-03-20T07:18:25.586Z,984.33
2018-03-20T07:19:25.732Z,984.35
2018-03-20T07:20:25.883Z,984.27
2018-03-20T07:21:26.034Z,984.30
2018-03-20T07:22:26.185Z,984.34
2018-03-20T07:23:26.363Z,984.35
2018-03-20T07:24:26.485Z,984.35
2018-03-20T07:25:26.636Z,984.36
2018-03-20T07:26:26.787Z,984.39
2018-03-20T07:27:26.939Z,984.38
2018-03-20T07:28:27.110Z,984.37
2018-03-20T07:29:27.237Z,984.36
2018-03-20T07:30:27.390Z,984.34
2018-03-20T07:31:27.541Z,984.36
2018-03-20T07:32:27.690Z,984.36
2018-03-20T07:33:27.854Z,984.43
2018-03-20T07:34:28.030Z,984.37
2018-03-20T07:35:28.144Z,984.42
2018-03-20T07:36:28.297Z,984.45
2018-03-20T07:37:28.446Z,984.47
2018-03-20T07:38:28.602Z,984.46
2018-03-20T07:39:28.747Z,984.51
2018-03-20T07:40:28.928Z,984.55
2018-03-20T07:41:29.066Z,984.56
2018-03-20T07:42:29.217Z,984.53
2018-03-20T07:43:29.364Z,984.52
2018-03-20T07:44:29.519Z,984.56
2018-03-20T07:45:29.720Z,984.57
2018-03-20T07:46:29.857Z,984.56
2018-03-20T07:47:29.966Z,984.58
2018-03-20T07:48:30.132Z,984.62
2018-03-20T07:49:30.268Z,984.65
2018-03-20T07:50:30.420Z,984.60
2018-03-20T07:51:30.569Z,984.57
2018-03-20T07:52:30.795Z,984.55
2018-03-20T07:53:30.859Z,984.59
2018-03-20T07:54:31.004Z,984.58
2018-03-20T07:55:31.167Z,984.63
2018-03-20T07:56:31.365Z,984.64
2018-03-20T07:57:31.472Z,984.68
2018-03-20T07:58:31.626Z,984.66
2018-03-20T07:59:31.764Z,984.69
2018-03-20T08:00:31.920Z,984.67
2018-03-20T08:01:32.072Z,984.76
2018-03-20T08:02:32.225Z,984.66
2018-03-20T08:03:32.379Z,984.67
2018-03-20T08:04:32.566Z,984.70
2018-03-20T08:05:32.707Z,984.71
2018-03-20T08:06:32.868Z,984.71
2018-03-20T08:07:33.019Z,984.70
2018-03-20T08:08:33.171Z,984.72
2018-03-20T08:09:33.330Z,984.73
2018-03-20T08:10:33.472Z,984.73
2018-03-20T08:11:33.623Z,984.67
2018-03-20T08:12:33.785Z,984.71
2018-03-20T08:13:33.942Z,984.72
2018-03-20T08:14:34.094Z,984.70
2018-03-20T08:15:34.245Z,984.74
2018-03-20T08:16:34.402Z,984.79
2018-03-20T08:17:34.546Z,984.87
2018-03-20T08:18:34.698Z,984.87
2018-03-20T08:19:34.850Z,984.87
2018-03-20T08:20:35.009Z,984.86
2018-03-20T08:21:35.163Z,984.88
2018-03-20T08:22:35.316Z,984.91
2018-03-20T08:23:35.462Z,984.92
2018-03-20T08:24:35.616Z,984.87
2018-03-20T08:25:35.764Z,984.89
2018-03-20T08:26:35.918Z,984.93
2018-03-20T08:27:36.061Z,984.93
2018-03-20T08:28:36.213Z,984.93
2018-03-20T08:29:36.366Z,984.95
2018-03-20T08:30:36.521Z,984.95
2018-03-20T08:31:36.920Z,984.91
2018-03-20T08:32:36.830Z,984.89
2018-03-20T08:33:37.000Z,984.95
2018-03-20T08:34:37.247Z,984.95
2018-03-20T08:35:37.324Z,984.89
2018-03-20T08:36:37.500Z,984.91
2018-03-20T08:37:37.651Z,984.93
2018-03-20T08:38:37.748Z,984.91
2018-03-20T08:39:37.906Z,984.94
2018-03-20T08:40:38.083Z,984.99
2018-03-20T08:41:38.192Z,984.99
2018-03-20T08:42:38.344Z,985.06
2018-03-20T08:43:38.496Z,985.03
2018-03-20T08:44:38.638Z,985.04
2018-03-20T08:45:38.793Z,984.98
2018-03-20T08:46:38.946Z,984.94
2018-03-20T08:47:39.096Z,984.95
2018-03-20T08:48:39.246Z,984.99
2018-03-20T08:49:39.403Z,984.97
2018-03-20T08:50:39.551Z,985.02
2018-03-20T08:51:39.700Z,985.04
2018-03-20T08:52:39.852Z,985.04
2018-03-20T08:53:40.006Z,985.01
2018-03-20T08:54:40.164Z,984.99
2018-03-20T08:55:40.337Z,985.00
2018-03-20T08:56:40.461Z,985.04
2018-03-20T08:57:40.607Z,985.02
2018-03-20T08:58:40.759Z,985.02
2018-03-20T08:59:40.920Z,985.00
2018-03-20T09:00:41.087Z,985.00
2018-03-20T09:01:41.224Z,985.01
2018-03-20T09:02:41.392Z,985.01
2018-03-20T09:03:41.544Z,985.04
2018-03-20T09:04:41.711Z,985.01
2018-03-20T09:05:41.846Z,985.02
2018-03-20T09:06:42.006Z,985.06
2018-03-20T09:07:42.113Z,985.04
2018-03-20T09:08:42.256Z,985.02
2018-03-20T09:09:42.409Z,985.07
2018-03-20T09:10:42.562Z,985.04
2018-03-20T09:11:42.712Z,985.04
2018-03-20T09:12:42.861Z,985.08
2018-03-20T09:13:43.016Z,985.09
2018-03-20T09:14:43.177Z,985.07
2018-03-20T09:15:43.329Z,985.08
2018-03-20T09:16:43.492Z,985.12
2018-03-20T09:17:43.632Z,985.08
2018-03-20T09:18:43.806Z,985.15
2018-03-20T09:19:43.942Z,985.17
2018-03-20T09:20:44.094Z,985.15
2018-03-20T09:21:44.255Z,985.15
2018-03-20T09:22:44.402Z,985.19
2018-03-20T09:23:44.555Z,985.19
2018-03-20T09:24:44.710Z,985.21
2018-03-20T09:25:44.859Z,985.16
2018-03-20T09:26:45.077Z,985.22
2018-03-20T09:27:45.152Z,985.20
2018-03-20T09:28:45.302Z,985.20
2018-03-20T09:29:45.466Z,985.18
2018-03-20T09:30:45.607Z,985.23
2018-03-20T09:31:45.759Z,985.25
2018-03-20T09:32:45.909Z,985.23
2018-03-20T09:33:46.064Z,985.24
2018-03-20T09:34:46.224Z,985.27
2018-03-20T09:35:46.372Z,985.24
2018-03-20T09:36:46.528Z,985.21
2018-03-20T09:37:46.673Z,985.26
2018-03-20T09:38:46.832Z,985.25
2018-03-20T09:39:46.983Z,985.26
2018-03-20T09:40:47.139Z,985.26
2018-03-20T09:41:47.301Z,985.26
2018-03-20T09:42:47.442Z,985.31
2018-03-20T09:43:47.617Z,985.28
2018-03-20T09:44:47.748Z,985.26
2018-03-20T09:45:47.908Z,985.28
2018-03-20T09:46:48.056Z,985.28
2018-03-20T09:47:48.214Z,985.30
2018-03-20T09:48:48.370Z,985.29
2018-03-20T09:49:48.516Z,985.26
2018-03-20T09:50:48.673Z,985.31
2018-03-20T09:51:48.821Z,985.33
2018-03-20T09:52:48.979Z,985.31
2018-03-20T09:53:49.128Z,985.34
2018-03-20T09:54:49.280Z,985.30
2018-03-20T09:55:49.432Z,985.30
2018-03-20T09:56:49.587Z,985.32
2018-03-20T09:57:49.739Z,985.36
2018-03-20T09:58:49.891Z,985.33
2018-03-20T09:59:50.056Z,985.32
2018-03-20T10:00:50.202Z,985.38
2018-03-20T10:01:50.356Z,985.40
2018-03-20T10:02:50.508Z,985.45
2018-03-20T10:03:50.658Z,985.36
2018-03-20T10:04:50.812Z,985.42
2018-03-20T10:05:50.965Z,985.42
2018-03-20T10:06:51.125Z,985.46
2018-03-20T10:07:51.345Z,985.44
2018-03-20T10:08:51.427Z,985.38
2018-03-20T10:09:51.575Z,985.43
2018-03-20T10:10:51.729Z,985.46
2018-03-20T10:11:51.881Z,985.46
2018-03-20T10:12:52.030Z,985.44
2018-03-20T10:13:52.187Z,985.52
2018-03-20T10:14:52.356Z,985.57
2018-03-20T10:15:52.489Z,985.63
2018-03-20T10:16:52.644Z,985.64
2018-03-20T10:17:52.797Z,985.58
2018-03-20T10:18:52.954Z,985.61
2018-03-20T10:19:53.107Z,985.58
2018-03-20T10:20:53.289Z,985.61
2018-03-20T10:21:53.522Z,985.65
2018-03-20T10:22:53.552Z,985.69
2018-03-20T10:23:53.705Z,985.71
2018-03-20T10:24:53.860Z,985.73
2018-03-20T10:25:54.011Z,985.73
2018-03-20T10:26:54.162Z,985.71
2018-03-20T10:27:54.316Z,985.70
2018-03-20T10:28:54.480Z,985.73
2018-03-20T10:29:54.621Z,985.72
2018-03-20T10:30:54.783Z,985.72
2018-03-20T10:31:54.931Z,985.72
2018-03-20T10:32:55.089Z,985.73
2018-03-20T10:33:55.254Z,985.74
2018-03-20T10:34:55.391Z,985.81
2018-03-20T10:35:55.543Z,985.84
2018-03-20T10:36:55.696Z,985.84
2018-03-20T10:37:55.860Z,985.87
2018-03-20T10:38:56.009Z,985.83
2018-03-20T10:39:56.162Z,985.82
2018-03-20T10:40:56.320Z,985.82
2018-03-20T10:41:56.471Z,985.83
2018-03-20T10:42:56.625Z,985.89
2018-03-20T10:43:56.768Z,985.88
2018-03-20T10:44:56.929Z,985.90
2018-03-20T10:45:57.082Z,985.92
2018-03-20T10:46:57.240Z,985.93
2018-03-20T10:47:57.400Z,985.93
2018-03-20T10:48:57.572Z,985.96
2018-03-20T10:49:57.693Z,985.97
2018-03-20T10:50:57.847Z,985.93
2018-03-20T10:51:58.001Z,985.98
2018-03-20T10:52:58.155Z,985.99
2018-03-20T10:53:58.297Z,985.99
2018-03-20T10:54:58.454Z,985.96
2018-03-20T10:55:58.606Z,985.97
2018-03-20T10:56:58.759Z,986.01
2018-03-20T10:57:58.911Z,986.04
2018-03-20T10:58:59.052Z,986.06
2018-03-20T10:59:59.208Z,986.04
2018-03-20T11:00:59.360Z,986.01
2018-03-20T11:01:59.514Z,986.04
2018-03-20T11:02:59.668Z,986.10
2018-03-20T11:03:59.825Z,986.09
2018-03-20T11:04:59.981Z,986.10
2018-03-20T11:06:00.127Z,986.07
2018-03-20T11:07:00.278Z,986.10
2018-03-20T11:08:00.430Z,986.16
2018-03-20T11:09:00.589Z,986.20
2018-03-20T11:10:00.875Z,986.16
2018-03-20T11:11:00.905Z,986.17
2018-03-20T11:12:01.057Z,986.21
2018-03-20T11:13:01.205Z,986.23
2018-03-20T11:14:01.367Z,986.23
2018-03-20T11:15:01.523Z,986.27
2018-03-20T11:16:01.673Z,986.19
2018-03-20T11:17:01.822Z,986.26
2018-03-20T11:18:01.978Z,986.27
2018-03-20T11:19:02.128Z,986.34
2018-03-20T11:20:02.277Z,986.33
2018-03-20T11:21:02.429Z,986.30
2018-03-20T11:22:02.586Z,986.35
2018-03-20T11:23:02.738Z,986.34
2018-03-20T11:24:02.890Z,986.36
2018-03-20T11:25:03.089Z,986.34
2018-03-20T11:26:03.225Z,986.38
2018-03-20T11:27:03.372Z,986.39
2018-03-20T11:28:03.526Z,986.40
2018-03-20T11:29:03.673Z,986.42
2018-03-20T11:30:03.837Z,986.42
2018-03-20T11:31:03.981Z,986.43
2018-03-20T11:32:04.132Z,986.44
2018-03-20T11:33:04.287Z,986.44
2018-03-20T11:34:04.460Z,986.45
2018-03-20T11:35:04.618Z,986.47
2018-03-20T11:36:04.778Z,986.50
2018-03-20T11:37:04.931Z,986.53
2018-03-20T11:38:05.088Z,986.53
2018-03-20T11:39:05.241Z,986.56
2018-03-20T11:40:05.396Z,986.52
2018-03-20T11:41:05.559Z,986.59
2018-03-20T11:42:05.699Z,986.61
2018-03-20T11:43:05.852Z,986.62
2018-03-20T11:44:06.015Z,986.63
2018-03-20T11:45:06.168Z,986.62
2018-03-20T11:46:06.315Z,986.63
2018-03-20T11:47:06.481Z,986.61
2018-03-20T11:48:06.633Z,986.62
2018-03-20T11:49:06.788Z,986.62
2018-03-20T11:50:06.940Z,986.66
2018-03-20T11:51:07.092Z,986.64
2018-03-20T11:52:07.245Z,986.67
2018-03-20T11:53:07.398Z,986.61
2018-03-20T11:54:07.553Z,986.66
2018-03-20T11:55:07.707Z,986.65
2018-03-20T11:56:07.861Z,986.71
2018-03-20T11:57:08.014Z,986.67
2018-03-20T11:58:08.166Z,986.70
2018-03-20T11:59:08.351Z,986.73
2018-03-20T12:00:08.912Z,986.74
2018-03-20T12:01:08.631Z,986.70
2018-03-20T12:02:08.835Z,986.75
2018-03-20T12:03:08.943Z,986.70
2018-03-20T12:04:09.087Z,986.73
2018-03-20T12:05:09.241Z,986.72
2018-03-20T12:06:09.511Z,986.72
2018-03-20T12:07:09.601Z,986.75
2018-03-20T12:08:09.926Z,986.77
2018-03-20T12:09:09.995Z,986.76
2018-03-20T12:10:11.318Z,986.79
2018-03-20T12:12:10.404Z,986.83
2018-03-20T12:13:10.546Z,986.80
2018-03-20T12:14:10.722Z,986.82
2018-03-20T12:15:11.507Z,986.82
2018-03-20T12:16:11.290Z,986.83
2018-03-20T12:17:11.246Z,986.86
2018-03-20T12:18:11.391Z,986.87
2018-03-20T12:19:11.578Z,986.89
2018-03-20T12:20:11.690Z,986.95
2018-03-20T12:21:11.846Z,986.92
2018-03-20T12:22:12.013Z,986.87
2018-03-20T12:23:12.147Z,986.87
2018-03-20T12:24:12.290Z,986.93
2018-03-20T12:25:12.449Z,986.98
2018-03-20T12:26:12.610Z,986.90
2018-03-20T12:27:12.757Z,986.95
2018-03-20T12:28:12.998Z,986.96
2018-03-20T12:29:13.488Z,986.97
2018-03-20T12:30:13.146Z,986.93
2018-03-20T12:31:13.301Z,986.95
2018-03-20T12:32:13.473Z,987.00